Time;durP1;ratioP1;P1;durP2;ratioP2;P2;SDS_P1;SDS_P2;PMS_P1;PMS_P2;Temp;Humidity;BMP_temperature;BMP_pressure;BME280_temperature;BME280_humidity;BME280_pressure;Samples;Min_cycle;Max_cycle;Signal;HPM_P1;HPM_P2
2023/03/30 08:55:23;;;;;;;16.45;3.60;;;;;;;;;;5075246;27;20140;-48
2023/03/30 08:57:49;;;;;;;;;;;;;;;;;;5054054;28;108761;-48
2023/03/30 09:00:19;;;;;;;10.02;2.90;;;;;;;;;;5055433;28;19920;-50
2023/03/30 09:02:46;;;;;;;14.27;3.65;;;;;;;;;;5066631;28;65249;-51
2023/03/30 09:05:17;;;;;;;10.02;3.47;;;;;;;;;;5037915;28;20035;-48
2023/03/30 09:07:59;;;;;;;9.70;2.88;;;;;;;;;;5056633;28;20120;-54
2023/03/30 09:10:25;;;;;;;8.52;2.55;;;;;;;;;;5038636;28;20805;-51
2023/03/30 09:12:52;;;;;;;8.98;2.97;;;;;;;;;;5056476;28;20044;-56
2023/03/30 09:15:20;;;;;;;10.68;3.28;;;;;;;;;;5037199;28;20025;-54
2023/03/30 09:17:50;;;;;;;12.52;3.58;;;;;;;;;;5087360;28;20037;-54
2023/03/30 09:20:22;;;;;;;8.63;3.40;;;;;;;;;;5054314;28;22066;-53
2023/03/30 09:22:49;;;;;;;12.35;3.00;;;;;;;;;;5055513;28;20538;-53
2023/03/30 09:25:17;;;;;;;13.45;3.42;;;;;;;;;;5051646;28;73732;-50
2023/03/30 09:28:11;;;;;;;8.25;3.40;;;;;;;;;;5070961;27;20393;-54
2023/03/30 09:32:40;;;;;;;18.05;3.53;;;;;;;;;;4976100;28;22346;-49
2023/03/30 09:35:06;;;;;;;16.45;3.50;;;;;;;;;;5002363;28;20030;-54
2023/03/30 09:37:33;;;;;;;14.35;3.60;;;;;;;;;;5002760;28;20058;-55
2023/03/30 09:40:01;;;;;;;11.25;3.55;;;;;;;;;;5002729;28;20044;-53
2023/03/30 09:42:37;;;;;;;10.77;3.67;;;;;;;;;;5005236;28;20049;-50
2023/03/30 09:45:13;;;;;;;11.00;3.28;;;20.40;56.30;;;;;;4986787;28;20039;-44
2023/03/30 09:48:48;;;;;;;20.52;3.13;;;20.80;56.70;;;;;;5081491;27;20396;-49
2023/03/30 09:51:17;;;;;;;14.75;3.22;;;20.60;57.10;;;;;;5085933;27;20047;-47
2023/03/30 09:53:45;;;;;;;12.80;3.42;;;20.50;57.30;;;;;;5084400;27;20698;-46
2023/03/30 09:56:32;;;;;;;9.80;3.30;;;20.50;57.40;;;;;;5072943;27;20251;-45
2023/03/30 09:59:22;;;;;;;11.48;3.05;;;20.50;57.50;;;;;;5044705;28;20252;-46
2023/03/30 10:01:47;;;;;;;9.15;3.00;;;20.50;57.50;;;;;;5047697;28;20144;-44
2023/03/30 10:04:15;;;;;;;13.43;3.30;;;20.50;57.50;;;;;;5062245;28;20091;-46
2023/03/30 10:06:48;;;;;;;14.10;3.33;;;20.50;57.50;;;;;;5056090;28;20064;-45
2023/03/30 10:09:16;;;;;;;8.88;2.47;;;20.50;57.60;;;;;;5052281;28;20032;-48
2023/03/30 10:11:50;;;;;;;8.27;2.80;;;20.50;57.50;;;;;;5049846;28;20033;-46
2023/03/30 10:14:33;;;;;;;10.13;2.85;;;20.40;57.30;;;;;;5051370;28;20155;-47
2023/03/30 10:17:00;;;;;;;10.15;3.72;;;20.40;57.20;;;;;;5051384;28;20029;-49
2023/03/30 10:19:27;;;;;;;10.38;2.90;;;20.40;57.20;;;;;;5043477;28;20372;-44
2023/03/30 10:21:56;;;;;;;4.35;2.22;;;20.40;57.20;;;;;;5050062;28;20029;-44
2023/03/30 10:24:32;;;;;;;6.63;2.65;;;20.40;57.10;;;;;;5047572;28;20376;-44
2023/03/30 10:27:02;;;;;;;9.38;3.15;;;20.30;57.00;;;;;;5049069;28;20048;-49
2023/03/30 10:29:28;;;;;;;10.80;2.65;;;20.30;57.00;;;;;;5060594;28;20589;-50
2023/03/30 10:32:16;;;;;;;8.27;2.53;;;20.30;57.00;;;;;;5054287;28;20464;-44
2023/03/30 10:34:45;;;;;;;9.60;2.78;;;20.30;57.00;;;;;;5038221;28;20024;-44
2023/03/30 10:37:29;;;;;;;8.57;2.53;;;20.30;56.80;;;;;;5054299;28;20025;-46
2023/03/30 10:39:58;;;;;;;9.00;2.45;;;20.30;56.90;;;;;;5051082;28;20443;-46
2023/03/30 10:42:27;;;;;;;12.77;2.83;;;20.30;56.90;;;;;;5050695;28;20082;-46
2023/03/30 10:44:55;;;;;;;7.82;2.38;;;20.20;56.90;;;;;;5048143;28;20119;-45
2023/03/30 10:47:48;;;;;;;7.85;2.40;;;20.30;57.00;;;;;;5041946;28;20390;-45
2023/03/30 10:50:24;;;;;;;12.88;3.25;;;20.20;57.00;;;;;;5046708;28;20029;-50
2023/03/30 10:53:14;;;;;;;8.52;2.72;;;20.20;57.00;;;;;;5053014;28;20609;-46
2023/03/30 10:56:11;;;;;;;12.73;2.65;;;20.20;57.20;;;;;;5047313;28;20095;-47
2023/03/30 10:58:43;;;;;;;7.10;2.30;;;20.20;57.10;;;;;;5049146;28;20082;-44
2023/03/30 11:01:16;;;;;;;8.45;2.30;;;20.20;57.30;;;;;;5039397;28;20029;-52
2023/03/30 11:03:48;;;;;;;7.15;3.35;;;20.20;57.30;;;;;;5038742;28;20450;-47
2023/03/30 11:06:22;;;;;;;6.18;2.20;;;20.20;57.30;;;;;;5036864;28;20060;-45
2023/03/30 11:08:51;;;;;;;6.43;2.08;;;20.20;57.30;;;;;;5037502;28;20030;-47
2023/03/30 11:11:24;;;;;;;5.68;2.00;;;20.20;57.40;;;;;;5035653;28;20725;-51
2023/03/30 11:14:03;;;;;;;9.27;2.50;;;20.20;57.50;;;;;;5037728;28;20033;-45
2023/03/30 11:16:41;;;;;;;5.95;2.10;;;20.20;57.60;;;;;;5029961;28;20144;-46
2023/03/30 11:19:23;;;;;;;6.50;2.00;;;20.20;57.60;;;;;;5039640;28;20104;-44
2023/03/30 11:22:13;;;;;;;6.43;2.53;;;20.10;57.60;;;;;;5033606;28;20036;-48
2023/03/30 11:24:41;;;;;;;6.80;2.05;;;20.20;57.60;;;;;;5027504;28;20033;-54
2023/03/30 11:27:26;;;;;;;3.30;1.55;;;20.10;57.70;;;;;;5047223;28;20122;-49
2023/03/30 11:30:27;;;;;;;6.65;1.92;;;20.10;57.70;;;;;;5029214;28;20127;-46
2023/03/30 11:33:04;;;;;;;7.32;2.00;;;20.20;57.80;;;;;;5036896;28;20510;-50
2023/03/30 11:35:42;;;;;;;4.80;1.98;;;20.10;57.80;;;;;;5038706;28;20319;-44
2023/03/30 11:38:12;;;;;;;3.58;1.63;;;20.10;57.90;;;;;;5030962;28;20028;-50
2023/03/30 11:40:46;;;;;;;4.57;1.50;;;20.10;57.90;;;;;;5034630;28;20065;-51
2023/03/30 11:43:15;;;;;;;5.73;1.83;;;20.10;58.00;;;;;;5031434;28;20033;-46
2023/03/30 11:45:59;;;;;;;5.63;2.15;;;20.10;58.00;;;;;;5037068;28;20079;-46
2023/03/30 11:48:44;;;;;;;6.05;1.70;;;20.10;58.10;;;;;;5043580;28;20379;-46
2023/03/30 11:51:41;;;;;;;5.32;1.88;;;20.10;58.10;;;;;;5035152;28;20033;-53
2023/03/30 11:54:49;;;;;;;4.20;2.63;;;20.10;58.20;;;;;;5033098;28;20048;-50
2023/03/30 11:57:21;;;;;;;5.20;2.17;;;20.10;58.30;;;;;;5060914;28;20032;-52
2023/03/30 12:00:07;;;;;;;3.85;1.67;;;20.10;58.30;;;;;;5037295;28;20727;-50
2023/03/30 12:02:51;;;;;;;5.80;1.55;;;20.10;58.30;;;;;;5052309;28;20952;-44
2023/03/30 12:05:30;;;;;;;4.18;1.63;;;20.10;58.40;;;;;;5039330;28;20099;-48
2023/03/30 12:08:17;;;;;;;8.57;2.15;;;20.10;58.40;;;;;;5036133;28;20111;-48
2023/03/30 12:10:50;;;;;;;4.05;1.40;;;20.10;58.50;;;;;;5036978;28;20043;-44
2023/03/30 12:13:18;;;;;;;3.97;1.70;;;20.10;58.40;;;;;;5031476;28;20116;-47
2023/03/30 12:15:55;;;;;;;2.65;1.45;;;20.10;58.50;;;;;;5020991;28;20033;-47
2023/03/30 12:18:56;;;;;;;3.50;1.40;;;20.10;58.40;;;;;;5033671;28;20090;-46
2023/03/30 12:21:32;;;;;;;4.72;1.58;;;20.10;58.50;;;;;;5034939;28;20484;-45
2023/03/30 12:24:16;;;;;;;3.38;1.70;;;20.10;58.50;;;;;;5027513;28;20060;-44
2023/03/30 12:26:42;;;;;;;4.93;2.00;;;20.10;58.60;;;;;;5038851;28;20489;-44
2023/03/30 12:29:13;;;;;;;7.35;1.70;;;20.10;58.60;;;;;;5040419;28;20059;-48
2023/03/30 12:32:03;;;;;;;10.10;2.38;;;20.10;58.70;;;;;;5036212;28;20037;-44
2023/03/30 12:34:35;;;;;;;8.60;2.38;;;20.10;58.70;;;;;;5030111;28;20024;-46
2023/03/30 12:37:04;;;;;;;14.30;2.50;;;20.10;58.80;;;;;;5037216;28;20059;-45
2023/03/30 12:39:47;;;;;;;10.07;2.10;;;20.10;58.80;;;;;;5035404;28;20041;-49
2023/03/30 12:42:33;;;;;;;9.73;2.45;;;20.10;58.80;;;;;;5032331;28;20061;-44
2023/03/30 12:45:01;;;;;;;9.07;2.10;;;20.10;58.80;;;;;;5025733;28;20452;-49
2023/03/30 12:48:14;;;;;;;7.88;2.10;;;20.10;58.80;;;;;;5030465;28;20745;-45
2023/03/30 12:51:08;;;;;;;8.50;1.83;;;20.10;58.90;;;;;;5031242;28;20057;-46
2023/03/30 12:53:49;;;;;;;7.70;2.25;;;20.10;58.80;;;;;;5038651;28;20071;-51
2023/03/30 12:56:36;;;;;;;5.97;2.10;;;20.10;58.80;;;;;;5044509;28;20083;-49
2023/03/30 12:59:26;;;;;;;10.60;2.47;;;20.10;58.80;;;;;;5031619;28;20025;-51
2023/03/30 13:02:17;;;;;;;4.75;2.30;;;20.10;58.80;;;;;;5037698;28;20043;-45
2023/03/30 13:04:45;;;;;;;8.75;2.17;;;20.10;58.80;;;;;;5039328;28;20402;-47
2023/03/30 13:07:22;;;;;;;3.55;2.05;;;20.00;58.70;;;;;;5036379;28;20494;-47
2023/03/30 13:09:56;;;;;;;6.32;1.90;;;20.10;58.70;;;;;;5035809;28;20032;-48
2023/03/30 13:12:39;;;;;;;6.82;2.55;;;20.00;58.70;;;;;;5037589;28;20091;-44
2023/03/30 13:15:25;;;;;;;3.05;1.90;;;20.00;58.70;;;;;;5037299;28;20494;-46
2023/03/30 13:17:53;;;;;;;;;;;20.10;58.70;;;;;;5038546;28;20057;-49
2023/03/30 13:20:26;;;;;;;4.25;1.67;;;20.00;58.70;;;;;;5041513;28;20372;-47
2023/03/30 13:23:20;;;;;;;3.40;1.67;;;20.00;58.70;;;;;;5040098;28;20423;-44
2023/03/30 13:26:04;;;;;;;5.18;1.80;;;20.00;58.60;;;;;;5004115;28;20405;-48
2023/03/30 13:28:54;;;;;;;4.47;1.30;;;20.00;58.70;;;;;;5037966;28;20029;-48
2023/03/30 13:31:39;;;;;;;7.68;2.10;;;20.00;58.70;;;;;;5040892;28;20747;-49
2023/03/30 13:34:25;;;;;;;2.70;1.42;;;20.00;58.70;;;;;;5039278;28;20479;-45
2023/03/30 13:37:08;;;;;;;;;;;20.00;58.70;;;;;;5024893;28;20029;-45
2023/03/30 13:39:46;;;;;;;2.88;1.40;;;20.00;58.80;;;;;;5034566;28;19924;-47
2023/03/30 13:42:48;;;;;;;4.00;1.60;;;20.00;58.80;;;;;;5032816;28;20041;-47
2023/03/30 13:45:35;;;;;;;5.38;2.00;;;20.00;58.80;;;;;;5025935;28;20080;-48
2023/03/30 13:48:26;;;;;;;3.80;1.55;;;20.00;58.80;;;;;;5049356;28;20036;-47
2023/03/30 13:50:57;;;;;;;1.90;1.23;;;20.10;58.90;;;;;;5036066;28;20690;-44
2023/03/30 13:53:27;;;;;;;4.40;1.85;;;20.00;58.90;;;;;;5038108;28;20166;-48
2023/03/30 13:55:53;;;;;;;3.25;1.40;;;20.00;58.90;;;;;;5035983;28;20041;-47
2023/03/30 13:58:27;;;;;;;4.32;1.80;;;20.00;58.90;;;;;;5038443;28;20564;-48
2023/03/30 14:01:00;;;;;;;4.65;1.60;;;20.00;58.90;;;;;;5026067;28;20145;-47
2023/03/30 14:03:34;;;;;;;2.97;1.42;;;20.00;58.90;;;;;;5036021;28;20056;-45
2023/03/30 14:06:07;;;;;;;3.30;1.77;;;20.00;58.90;;;;;;5039819;28;20036;-50
2023/03/30 14:08:38;;;;;;;5.28;1.70;;;20.00;59.00;;;;;;5040502;28;20399;-47
2023/03/30 14:11:13;;;;;;;5.80;1.90;;;20.00;59.00;;;;;;5044569;28;20037;-45
2023/03/30 14:13:39;;;;;;;2.78;1.67;;;20.00;59.00;;;;;;5035433;28;20047;-49
2023/03/30 14:16:05;;;;;;;4.30;1.83;;;20.00;59.00;;;;;;5031844;28;20026;-50
2023/03/30 14:18:31;;;;;;;4.82;1.50;;;20.00;59.00;;;;;;5038794;28;20025;-46
2023/03/30 14:21:00;;;;;;;3.13;1.33;;;20.00;59.00;;;;;;5042277;28;20534;-49
2023/03/30 14:23:54;;;;;;;4.40;1.80;;;20.00;59.00;;;;;;5044137;28;20021;-47
2023/03/30 14:26:27;;;;;;;2.83;1.30;;;20.00;59.00;;;;;;5031932;28;20025;-53
2023/03/30 14:28:59;;;;;;;5.38;1.30;;;20.00;59.00;;;;;;5037090;28;20086;-44
2023/03/30 14:31:27;;;;;;;3.53;1.20;;;20.00;58.90;;;;;;5039276;28;20060;-48
2023/03/30 14:33:54;;;;;;;3.40;2.13;;;20.00;59.00;;;;;;5036000;28;20037;-48
2023/03/30 14:36:20;;;;;;;2.05;1.35;;;20.00;58.90;;;;;;5033788;28;20107;-50
2023/03/30 14:38:50;;;;;;;2.92;1.58;;;20.00;59.00;;;;;;5051779;28;20048;-47
2023/03/30 14:41:23;;;;;;;1.83;1.15;;;20.00;59.00;;;;;;5033336;28;20029;-48
2023/03/30 14:44:02;;;;;;;1.90;1.20;;;20.00;58.90;;;;;;5003385;28;20475;-47
2023/03/30 14:46:40;;;;;;;2.20;1.33;;;20.00;59.00;;;;;;5033711;28;20032;-47
2023/03/30 14:49:07;;;;;;;2.90;1.70;;;20.00;59.60;;;;;;5045811;28;20113;-50
2023/03/30 14:51:40;;;;;;;3.00;1.27;;;20.00;59.00;;;;;;5039578;28;20143;-50
2023/03/30 14:54:07;;;;;;;1.83;1.00;;;20.00;59.00;;;;;;5043454;28;20033;-48
2023/03/30 14:56:32;;;;;;;2.30;1.20;;;19.90;58.90;;;;;;5040349;28;20109;-45
2023/03/30 14:58:58;;;;;;;2.15;1.20;;;20.00;59.00;;;;;;5038019;28;20108;-46
2023/03/30 15:01:30;;;;;;;1.40;1.15;;;20.00;59.10;;;;;;5041414;28;20043;-48
2023/03/30 15:04:00;;;;;;;3.30;1.25;;;20.00;59.00;;;;;;5041225;28;20460;-48
2023/03/30 15:06:28;;;;;;;2.13;1.20;;;19.90;59.00;;;;;;5040018;28;20030;-51
2023/03/30 15:08:59;;;;;;;2.03;1.10;;;19.90;59.10;;;;;;5016938;28;20044;-53
2023/03/30 15:11:27;;;;;;;10.70;2.20;;;19.90;59.00;;;;;;5036641;28;20517;-50
2023/03/30 15:13:56;;;;;;;12.95;2.28;;;19.90;59.00;;;;;;5038971;28;20032;-49
2023/03/30 15:16:27;;;;;;;11.77;2.30;;;19.90;59.00;;;;;;5035019;28;20156;-46
2023/03/30 15:19:00;;;;;;;10.52;2.80;;;19.90;59.00;;;;;;5039000;28;20025;-50
2023/03/30 15:21:28;;;;;;;10.65;2.20;;;19.90;59.00;;;;;;5056407;22;20078;-61
2023/03/30 15:23:53;;;;;;;12.32;3.00;;;19.90;59.00;;;;;;5008038;28;20044;-62
2023/03/30 15:26:20;;;;;;;8.32;1.98;;;19.90;59.00;;;;;;5008875;28;20034;-65
2023/03/30 15:28:52;;;;;;;11.60;2.47;;;19.90;59.00;;;;;;5007264;28;20509;-65
2023/03/30 15:31:18;;;;;;;5.45;1.65;;;19.80;58.90;;;;;;5008612;28;20441;-65
2023/03/30 15:33:49;;;;;;;12.07;2.20;;;19.90;58.90;;;;;;5010296;28;20038;-62
2023/03/30 15:36:21;;;;;;;6.07;1.90;;;19.90;58.90;;;;;;5004996;28;20041;-62
2023/03/30 15:39:00;;;;;;;6.20;1.80;;;19.80;58.80;;;;;;4993518;28;20057;-65
2023/03/30 15:41:48;;;;;;;5.18;1.88;;;19.80;58.80;;;;;;5006909;28;20033;-62
2023/03/30 15:44:20;;;;;;;4.22;1.40;;;19.80;58.80;;;;;;5001138;28;20034;-65
2023/03/30 15:46:48;;;;;;;4.97;1.58;;;19.80;58.90;;;;;;5005888;28;20044;-65
2023/03/30 15:49:17;;;;;;;5.57;1.98;;;19.80;59.00;;;;;;5006419;28;20064;-65
2023/03/30 15:51:51;;;;;;;6.05;1.77;;;19.80;59.00;;;;;;5003621;28;20084;-64
2023/03/30 15:54:25;;;;;;;7.10;1.60;;;19.80;59.00;;;;;;5005351;28;20029;-66
2023/03/30 15:57:02;;;;;;;3.70;1.80;;;19.80;59.00;;;;;;5000651;28;20335;-64
2023/03/30 15:59:34;;;;;;;9.20;1.42;;;19.80;59.20;;;;;;5007025;28;20473;-65
2023/03/30 16:02:02;;;;;;;5.43;1.80;;;19.80;59.00;;;;;;5012396;28;20033;-64
2023/03/30 16:04:31;;;;;;;9.48;1.83;;;19.80;59.20;;;;;;5009911;28;20527;-63
2023/03/30 16:06:56;;;;;;;3.88;1.33;;;19.80;59.10;;;;;;5011371;28;20081;-63
2023/03/30 16:09:22;;;;;;;2.90;1.10;;;19.80;59.10;;;;;;5013227;28;20057;-65
2023/03/30 16:11:48;;;;;;;6.00;1.70;;;19.80;59.20;;;;;;4991434;28;20163;-64
2023/03/30 16:14:16;;;;;;;6.32;1.40;;;19.80;59.20;;;;;;5007359;28;20033;-65
2023/03/30 16:16:43;;;;;;;6.82;1.23;;;19.80;59.20;;;;;;5004250;28;20492;-65
2023/03/30 16:19:13;;;;;;;5.57;1.42;;;19.80;59.30;;;;;;5008858;28;20030;-64
2023/03/30 16:21:39;;;;;;;6.95;1.90;;;19.80;59.20;;;;;;4990861;28;20215;-65
2023/03/30 16:24:05;;;;;;;5.72;1.33;;;19.80;59.20;;;;;;4992837;28;20029;-65
2023/03/30 16:26:31;;;;;;;6.97;1.70;;;19.80;59.20;;;;;;5009130;28;20021;-62
2023/03/30 16:28:56;;;;;;;5.25;1.05;;;19.80;59.20;;;;;;5006462;28;20399;-64
2023/03/30 16:31:22;;;;;;;3.97;1.40;;;19.80;59.20;;;;;;5010131;28;20045;-64
2023/03/30 16:33:48;;;;;;;3.10;1.15;;;19.80;59.20;;;;;;5001339;28;20041;-64
2023/03/30 16:36:16;;;;;;;5.63;1.75;;;19.80;59.20;;;;;;5010525;28;20059;-64
2023/03/30 16:38:42;;;;;;;3.13;1.00;;;19.80;59.20;;;;;;5012222;28;20065;-65
2023/03/30 16:41:14;;;;;;;4.68;1.63;;;19.80;59.20;;;;;;5003672;28;20037;-65
2023/03/30 16:43:39;;;;;;;6.32;1.20;;;19.80;59.20;;;;;;5003635;28;20048;-65
2023/03/30 16:46:05;;;;;;;5.43;1.55;;;19.80;59.20;;;;;;5010736;28;20634;-65
2023/03/30 16:48:30;;;;;;;2.65;1.25;;;19.80;59.30;;;;;;5008094;28;20036;-65
2023/03/30 16:50:56;;;;;;;2.97;0.95;;;19.80;59.40;;;;;;4997076;23;20057;-60
2023/03/30 16:53:22;;;;;;;3.47;1.15;;;19.90;59.60;;;;;;5014472;28;20125;-59
2023/03/30 16:55:48;;;;;;;7.05;0.88;;;19.90;59.50;;;;;;5013634;28;20033;-60
2023/03/30 16:58:14;;;;;;;13.85;1.60;;;20.00;59.60;;;;;;5010566;28;20072;-59
2023/03/30 17:00:48;;;;;;;5.57;1.35;;;20.00;59.50;;;;;;5010287;28;20112;-59
2023/03/30 17:03:14;;;;;;;4.63;1.10;;;20.10;59.40;;;;;;5021693;28;20506;-59
2023/03/30 17:05:40;;;;;;;10.18;1.20;;;20.10;59.40;;;;;;5025834;28;20037;-59
2023/03/30 17:08:20;;;;;;;9.10;1.20;;;20.20;59.40;;;;;;5023138;28;20121;-58
2023/03/30 17:10:46;;;;;;;4.82;1.30;;;20.20;59.30;;;;;;5020996;28;20049;-59
2023/03/30 17:13:11;;;;;;;6.30;1.50;;;20.20;59.10;;;;;;5026000;28;20033;-59
2023/03/30 17:15:37;;;;;;;6.28;1.25;;;20.20;59.10;;;;;;5025618;28;20148;-59
2023/03/30 17:18:12;;;;;;;3.95;0.95;;;20.20;59.10;;;;;;5026704;28;20059;-60
2023/03/30 17:20:39;;;;;;;3.70;1.10;;;20.20;59.00;;;;;;5024593;28;20096;-60
2023/03/30 17:23:05;;;;;;;9.68;1.00;;;20.30;59.70;;;;;;5033246;28;20037;-58
2023/03/30 17:25:31;;;;;;;6.47;1.00;;;20.30;58.90;;;;;;5027912;28;20458;-59
2023/03/30 17:27:57;;;;;;;6.85;1.38;;;20.30;58.90;;;;;;5027622;28;20167;-60
2023/03/30 17:30:27;;;;;;;5.75;1.40;;;20.30;58.90;;;;;;5024504;28;20056;-60
2023/03/30 17:32:54;;;;;;;3.28;1.10;;;20.30;58.80;;;;;;5026170;28;20036;-59
2023/03/30 17:35:20;;;;;;;3.92;1.35;;;20.30;58.80;;;;;;5025342;28;20056;-60
2023/03/30 17:37:46;;;;;;;5.05;1.42;;;20.20;58.70;;;;;;5026099;28;20037;-59
2023/03/30 17:40:26;;;;;;;4.38;1.10;;;20.20;58.70;;;;;;5021325;28;20495;-59
2023/03/30 17:42:52;;;;;;;5.70;1.52;;;20.30;58.70;;;;;;5020962;28;20642;-60
2023/03/30 17:45:20;;;;;;;3.53;1.35;;;20.30;58.70;;;;;;5028336;28;20049;-59
2023/03/30 17:47:46;;;;;;;5.50;1.25;;;20.20;58.60;;;;;;5024302;28;20122;-59
2023/03/30 17:50:20;;;;;;;9.43;1.30;;;20.20;58.80;;;;;;5026191;28;20037;-60
2023/03/30 17:52:46;;;;;;;6.07;1.95;;;20.30;58.90;;;;;;5025578;28;20048;-60
2023/03/30 17:55:13;;;;;;;3.30;1.35;;;20.30;58.90;;;;;;5030073;28;20036;-59
2023/03/30 17:57:39;;;;;;;2.72;0.93;;;20.30;59.60;;;;;;5025900;28;20151;-59
2023/03/30 18:00:13;;;;;;;3.28;1.17;;;20.40;59.00;;;;;;5021742;28;20235;-59
2023/03/30 18:02:39;;;;;;;5.35;1.35;;;20.40;59.10;;;;;;5024142;28;20033;-60
2023/03/30 18:05:04;;;;;;;5.80;1.40;;;20.40;58.90;;;;;;5030618;28;20030;-60
2023/03/30 18:07:29;;;;;;;7.68;1.30;;;20.40;58.90;;;;;;5026342;28;20036;-59
2023/03/30 18:09:55;;;;;;;13.18;1.52;;;20.40;58.90;;;;;;5025930;28;20663;-60
2023/03/30 18:12:20;;;;;;;6.88;2.20;;;20.40;58.80;;;;;;5032360;28;20079;-61
2023/03/30 18:14:46;;;;;;;5.18;1.42;;;20.50;58.80;;;;;;5029290;28;20111;-59
2023/03/30 18:17:11;;;;;;;9.00;2.00;;;20.40;58.60;;;;;;5032694;28;20024;-59
2023/03/30 18:19:37;;;;;;;6.22;1.85;;;20.50;58.60;;;;;;5033258;28;20445;-60
2023/03/30 18:22:02;;;;;;;6.78;1.77;;;20.50;58.50;;;;;;5033351;28;20087;-60
2023/03/30 18:24:28;;;;;;;4.85;1.92;;;20.50;58.50;;;;;;5031092;28;20048;-60
2023/03/30 18:26:53;;;;;;;6.15;1.88;;;20.50;58.40;;;;;;5030381;28;20094;-60
2023/03/30 18:29:21;;;;;;;5.45;1.92;;;20.50;58.40;;;;;;5026875;28;20069;-60
2023/03/30 18:31:47;;;;;;;7.72;2.45;;;20.40;58.40;;;;;;5029200;28;20030;-58
2023/03/30 18:34:13;;;;;;;6.55;2.13;;;20.40;58.30;;;;;;5031363;28;20075;-59
2023/03/30 18:36:38;;;;;;;6.32;1.90;;;20.50;58.40;;;;;;5026188;28;20531;-60
2023/03/30 18:39:04;;;;;;;6.13;2.00;;;20.40;58.30;;;;;;5030330;28;20032;-63
2023/03/30 18:41:29;;;;;;;8.52;2.03;;;20.50;58.40;;;;;;5031141;28;20037;-61
2023/03/30 18:43:55;;;;;;;8.73;2.97;;;20.40;58.30;;;;;;5031846;28;20682;-62
2023/03/30 18:46:20;;;;;;;6.10;2.20;;;20.40;58.50;;;;;;5029591;28;20028;-63
2023/03/30 18:48:47;;;;;;;11.18;2.25;;;20.40;58.40;;;;;;5032609;28;20347;-61
2023/03/30 18:51:12;;;;;;;5.57;1.67;;;20.40;58.40;;;;;;5028372;28;20037;-61
2023/03/30 18:53:38;;;;;;;6.32;1.70;;;20.40;58.30;;;;;;5033452;28;20095;-60
2023/03/30 18:56:05;;;;;;;8.82;1.95;;;20.40;58.30;;;;;;5032388;28;20030;-60
2023/03/30 18:58:40;;;;;;;6.13;1.98;;;20.40;58.30;;;;;;5028377;28;20396;-60
2023/03/30 19:01:06;;;;;;;9.15;2.08;;;20.40;58.30;;;;;;5030238;28;20053;-58
2023/03/30 19:03:32;;;;;;;2.83;1.35;;;20.30;58.30;;;;;;5028077;28;20288;-60
2023/03/30 19:05:57;;;;;;;5.97;1.77;;;20.40;58.30;;;;;;5023069;28;20492;-61
2023/03/30 19:08:24;;;;;;;6.43;1.77;;;20.30;58.30;;;;;;5023817;28;20037;-61
2023/03/30 19:10:56;;;;;;;5.63;1.52;;;20.30;58.30;;;;;;5028549;28;21710;-61
2023/03/30 19:13:23;;;;;;;5.97;2.05;;;20.30;58.20;;;;;;5031354;28;20122;-60
2023/03/30 19:15:50;;;;;;;12.38;2.58;;;20.30;58.80;;;;;;5033075;28;20032;-60
2023/03/30 19:18:16;;;;;;;10.43;3.45;;;20.30;59.40;;;;;;5031608;28;20503;-59
2023/03/30 19:20:42;;;;;;;10.25;2.53;;;20.30;60.10;;;;;;5032257;28;20522;-59
2023/03/30 19:23:15;;;;;;;8.88;2.85;;;20.30;60.30;;;;;;5028493;28;20044;-59
2023/03/30 19:25:42;;;;;;;7.63;2.25;;;20.30;60.70;;;;;;5023465;28;20029;-60
2023/03/30 19:28:09;;;;;;;6.30;2.30;;;20.30;60.70;;;;;;5027225;28;20041;-60
2023/03/30 19:30:35;;;;;;;7.15;2.28;;;20.30;60.90;;;;;;5030659;28;20037;-60
2023/03/30 19:33:06;;;;;;;7.05;2.08;;;20.30;60.70;;;;;;5029172;28;20508;-59
2023/03/30 19:35:32;;;;;;;14.35;3.08;;;20.30;60.70;;;;;;5026822;28;20427;-61
2023/03/30 19:37:58;;;;;;;7.82;1.80;;;20.30;61.10;;;;;;5027714;28;20040;-60
2023/03/30 19:40:23;;;;;;;8.18;1.75;;;20.30;60.80;;;;;;5030511;28;20045;-59
2023/03/30 19:42:50;;;;;;;7.85;2.30;;;20.20;60.70;;;;;;5030042;28;20474;-60
2023/03/30 19:45:18;;;;;;;6.40;1.85;;;20.20;60.80;;;;;;5030109;28;20032;-59
2023/03/30 19:47:44;;;;;;;6.85;2.70;;;20.20;60.70;;;;;;5033128;28;20048;-59
2023/03/30 19:50:14;;;;;;;7.43;2.00;;;20.20;60.80;;;;;;5028766;28;20039;-59
2023/03/30 19:52:40;;;;;;;3.88;1.73;;;20.20;60.80;;;;;;5034227;28;20040;-58
2023/03/30 19:55:07;;;;;;;3.80;1.90;;;20.20;60.70;;;;;;5026106;28;20052;-59
2023/03/30 19:57:33;;;;;;;4.18;1.77;;;20.20;60.90;;;;;;5028008;28;20106;-59
2023/03/30 19:59:59;;;;;;;8.02;2.40;;;20.20;60.70;;;;;;5025320;28;20520;-60
2023/03/30 20:02:24;;;;;;;3.90;1.70;;;20.20;60.70;;;;;;5034025;28;20275;-58
2023/03/30 20:04:51;;;;;;;4.20;2.03;;;20.20;60.60;;;;;;5026689;28;20037;-59
2023/03/30 20:07:17;;;;;;;3.97;1.48;;;20.20;60.80;;;;;;5030179;28;20029;-60
2023/03/30 20:09:42;;;;;;;5.00;1.80;;;20.20;60.80;;;;;;5030051;28;20052;-60
2023/03/30 20:12:09;;;;;;;6.53;1.75;;;20.20;60.70;;;;;;5029335;28;20017;-60
2023/03/30 20:14:35;;;;;;;5.72;1.63;;;20.10;60.60;;;;;;5033025;28;20160;-58
2023/03/30 20:17:01;;;;;;;3.20;2.10;;;20.20;60.70;;;;;;5032091;28;20034;-60
2023/03/30 20:19:28;;;;;;;5.10;1.63;;;20.10;60.50;;;;;;5034879;28;20029;-58
2023/03/30 20:21:59;;;;;;;3.63;1.77;;;20.10;60.60;;;;;;5028418;28;20030;-60
2023/03/30 20:24:25;;;;;;;4.70;1.92;;;20.10;60.60;;;;;;5052270;28;20100;-59
2023/03/30 20:26:50;;;;;;;3.28;1.40;;;20.10;60.70;;;;;;5024984;28;20325;-59
2023/03/30 20:29:16;;;;;;;5.90;1.55;;;20.10;60.60;;;;;;5023841;28;20033;-59
2023/03/30 20:31:43;;;;;;;2.55;1.27;;;20.10;60.60;;;;;;5027089;28;20368;-59
2023/03/30 20:34:11;;;;;;;5.63;1.55;;;20.10;60.70;;;;;;5027130;28;20060;-57
2023/03/30 20:36:37;;;;;;;4.03;1.67;;;20.10;60.50;;;;;;5027767;28;20026;-60
2023/03/30 20:39:04;;;;;;;6.15;1.80;;;20.10;60.80;;;;;;5030256;28;20075;-60
2023/03/30 20:41:36;;;;;;;2.80;1.08;;;20.10;61.30;;;;;;5035296;28;20474;-60
2023/03/30 20:44:04;;;;;;;3.80;1.58;;;20.10;60.50;;;;;;5033850;28;20598;-60
2023/03/30 20:46:33;;;;;;;3.97;1.55;;;20.10;60.50;;;;;;5038072;28;20431;-60
2023/03/30 20:49:00;;;;;;;2.22;1.38;;;20.10;60.50;;;;;;5030303;28;20025;-60
2023/03/30 20:51:26;;;;;;;2.65;1.45;;;20.10;60.40;;;;;;5023333;28;20049;-60
2023/03/30 20:53:52;;;;;;;3.13;1.10;;;20.10;60.50;;;;;;5019818;28;20060;-59
2023/03/30 20:56:18;;;;;;;4.18;1.38;;;20.00;60.40;;;;;;5025693;28;20064;-58
2023/03/30 20:58:44;;;;;;;3.53;1.48;;;20.00;60.40;;;;;;5026906;28;20057;-59
2023/03/30 21:01:17;;;;;;;3.05;1.15;;;20.00;60.40;;;;;;5021808;28;20690;-61
2023/03/30 21:03:43;;;;;;;3.38;1.50;;;20.10;60.40;;;;;;5020316;28;20502;-57
2023/03/30 21:06:12;;;;;;;6.93;1.50;;;20.10;61.00;;;;;;5019002;28;20030;-59
2023/03/30 21:08:37;;;;;;;4.25;1.30;;;20.00;60.40;;;;;;5014151;28;20037;-57
2023/03/30 21:11:05;;;;;;;3.78;1.52;;;20.00;60.40;;;;;;5020830;28;20956;-58
2023/03/30 21:13:31;;;;;;;4.03;1.30;;;20.00;60.30;;;;;;5016535;28;20057;-60
2023/03/30 21:15:58;;;;;;;3.38;0.90;;;20.00;60.40;;;;;;5028449;28;20076;-60
2023/03/30 21:18:24;;;;;;;2.30;1.10;;;20.00;60.40;;;;;;5031125;28;20522;-60
2023/03/30 21:20:50;;;;;;;4.43;1.30;;;20.00;60.40;;;;;;5008554;28;20037;-57
2023/03/30 21:23:15;;;;;;;3.15;0.95;;;20.00;60.40;;;;;;5022258;28;20176;-60
2023/03/30 21:25:41;;;;;;;3.47;1.20;;;20.00;60.50;;;;;;5026724;28;20475;-60
2023/03/30 21:28:07;;;;;;;4.88;1.40;;;20.00;60.30;;;;;;5025963;28;20034;-60
2023/03/30 21:30:34;;;;;;;2.30;1.00;;;20.00;60.40;;;;;;5023483;28;20349;-57
2023/03/30 21:33:00;;;;;;;4.38;1.33;;;20.00;60.40;;;;;;5013578;28;20033;-60
2023/03/30 21:35:26;;;;;;;4.03;1.00;;;20.00;60.40;;;;;;5017758;28;20029;-60
2023/03/30 21:37:51;;;;;;;4.18;1.63;;;20.00;60.50;;;;;;5019783;28;20056;-61
2023/03/30 21:40:17;;;;;;;6.03;1.17;;;20.00;60.40;;;;;;5016899;28;20147;-61
2023/03/30 21:42:42;;;;;;;2.40;1.10;;;20.00;60.40;;;;;;5017491;28;20040;-56
2023/03/30 21:45:10;;;;;;;2.67;1.00;;;20.00;60.40;;;;;;5020687;28;20029;-60
2023/03/30 21:47:36;;;;;;;4.72;1.73;;;19.90;60.40;;;;;;5023178;28;20048;-60
2023/03/30 21:50:02;;;;;;;2.67;1.20;;;20.00;60.40;;;;;;5019580;28;21398;-61
2023/03/30 21:52:28;;;;;;;2.67;1.17;;;19.90;60.40;;;;;;5019825;28;20041;-61
2023/03/30 21:54:53;;;;;;;2.35;1.05;;;20.00;60.40;;;;;;5023549;28;20037;-60
2023/03/30 21:57:19;;;;;;;4.68;0.93;;;20.00;60.40;;;;;;5024290;28;20523;-60
2023/03/30 21:59:44;;;;;;;2.50;1.30;;;19.90;60.40;;;;;;5013065;28;20571;-60
2023/03/30 22:02:10;;;;;;;3.20;0.90;;;19.90;60.40;;;;;;5015650;28;20079;-60
2023/03/30 22:04:35;;;;;;;3.22;1.10;;;19.90;60.30;;;;;;5021458;28;20369;-60
2023/03/30 22:07:01;;;;;;;2.63;1.35;;;19.90;60.40;;;;;;5013175;28;20029;-60
2023/03/30 22:09:27;;;;;;;2.40;0.90;;;20.00;60.40;;;;;;5014431;28;20263;-60
2023/03/30 22:11:54;;;;;;;2.05;1.00;;;19.90;60.30;;;;;;5018919;28;20044;-60